sensor_id;sensor_type;location;lat;lon;timestamp;P1;durP1;ratioP1;P2;durP2;ratioP2
17796;SDS011;55596;53.554;9.916;2023-11-22T00:01:53;5.73;;;4.13;;
17796;SDS011;55596;53.554;9.916;2023-11-22T00:04:20;12.17;;;3.57;;
17796;SDS011;55596;53.554;9.916;2023-11-22T00:06:47;7.03;;;3.77;;
17796;SDS011;55596;53.554;9.916;2023-11-22T00:09:14;5.63;;;3.77;;
17796;SDS011;55596;53.554;9.916;2023-11-22T00:11:47;5.33;;;3.90;;
17796;SDS011;55596;53.554;9.916;2023-11-22T00:14:14;6.57;;;3.43;;
17796;SDS011;55596;53.554;9.916;2023-11-22T00:16:42;5.13;;;3.63;;
17796;SDS011;55596;53.554;9.916;2023-11-22T00:19:09;6.60;;;4.07;;
17796;SDS011;55596;53.554;9.916;2023-11-22T00:21:36;4.73;;;3.80;;
17796;SDS011;55596;53.554;9.916;2023-11-22T00:24:04;6.03;;;3.97;;
17796;SDS011;55596;53.554;9.916;2023-11-22T00:26:31;4.93;;;3.80;;
17796;SDS011;55596;53.554;9.916;2023-11-22T00:28:58;5.77;;;3.90;;
17796;SDS011;55596;53.554;9.916;2023-11-22T00:31:25;5.73;;;4.03;;
17796;SDS011;55596;53.554;9.916;2023-11-22T00:33:54;8.67;;;4.53;;
17796;SDS011;55596;53.554;9.916;2023-11-22T00:36:21;6.33;;;4.53;;
17796;SDS011;55596;53.554;9.916;2023-11-22T00:38:49;6.10;;;4.67;;
17796;SDS011;55596;53.554;9.916;2023-11-22T00:41:16;7.40;;;4.17;;
17796;SDS011;55596;53.554;9.916;2023-11-22T00:43:44;6.77;;;4.27;;
17796;SDS011;55596;53.554;9.916;2023-11-22T00:46:11;7.17;;;4.33;;
17796;SDS011;55596;53.554;9.916;2023-11-22T00:48:38;6.27;;;4.90;;
17796;SDS011;55596;53.554;9.916;2023-11-22T00:51:06;7.80;;;4.43;;
17796;SDS011;55596;53.554;9.916;2023-11-22T00:53:35;8.70;;;4.67;;
17796;SDS011;55596;53.554;9.916;2023-11-22T00:56:02;7.07;;;4.53;;
17796;SDS011;55596;53.554;9.916;2023-11-22T00:58:30;7.87;;;4.90;;
17796;SDS011;55596;53.554;9.916;2023-11-22T01:00:57;5.93;;;4.60;;
17796;SDS011;55596;53.554;9.916;2023-11-22T01:03:24;5.90;;;4.53;;
17796;SDS011;55596;53.554;9.916;2023-11-22T01:05:51;9.47;;;5.50;;
17796;SDS011;55596;53.554;9.916;2023-11-22T01:08:20;9.07;;;5.67;;
17796;SDS011;55596;53.554;9.916;2023-11-22T01:10:47;9.57;;;5.77;;
17796;SDS011;55596;53.554;9.916;2023-11-22T01:13:14;9.00;;;5.60;;
17796;SDS011;55596;53.554;9.916;2023-11-22T01:15:43;10.97;;;6.00;;
17796;SDS011;55596;53.554;9.916;2023-11-22T01:18:10;8.37;;;6.20;;
17796;SDS011;55596;53.554;9.916;2023-11-22T01:20:37;11.03;;;8.27;;
17796;SDS011;55596;53.554;9.916;2023-11-22T01:23:04;9.90;;;6.30;;
17796;SDS011;55596;53.554;9.916;2023-11-22T01:25:33;9.77;;;6.70;;
17796;SDS011;55596;53.554;9.916;2023-11-22T01:28:00;10.97;;;6.33;;
17796;SDS011;55596;53.554;9.916;2023-11-22T01:30:28;10.90;;;7.03;;
17796;SDS011;55596;53.554;9.916;2023-11-22T01:32:55;12.87;;;7.83;;
17796;SDS011;55596;53.554;9.916;2023-11-22T01:35:22;12.37;;;6.57;;
17796;SDS011;55596;53.554;9.916;2023-11-22T01:37:49;7.77;;;5.30;;
17796;SDS011;55596;53.554;9.916;2023-11-22T01:40:17;9.47;;;6.20;;
17796;SDS011;55596;53.554;9.916;2023-11-22T01:42:46;8.00;;;5.70;;
17796;SDS011;55596;53.554;9.916;2023-11-22T01:45:13;8.17;;;5.37;;
17796;SDS011;55596;53.554;9.916;2023-11-22T01:47:40;10.03;;;5.97;;
17796;SDS011;55596;53.554;9.916;2023-11-22T01:50:08;10.20;;;7.37;;
17796;SDS011;55596;53.554;9.916;2023-11-22T01:52:36;9.73;;;6.60;;
17796;SDS011;55596;53.554;9.916;2023-11-22T01:55:03;8.63;;;6.07;;
17796;SDS011;55596;53.554;9.916;2023-11-22T01:57:30;7.57;;;5.63;;
17796;SDS011;55596;53.554;9.916;2023-11-22T02:00:00;9.77;;;6.20;;
17796;SDS011;55596;53.554;9.916;2023-11-22T02:02:29;12.63;;;6.27;;
17796;SDS011;55596;53.554;9.916;2023-11-22T02:04:56;10.07;;;5.63;;
17796;SDS011;55596;53.554;9.916;2023-11-22T02:07:23;10.57;;;5.90;;
17796;SDS011;55596;53.554;9.916;2023-11-22T02:09:51;8.53;;;5.90;;
17796;SDS011;55596;53.554;9.916;2023-11-22T02:12:18;7.40;;;5.50;;
17796;SDS011;55596;53.554;9.916;2023-11-22T02:14:46;8.67;;;6.70;;
17796;SDS011;55596;53.554;9.916;2023-11-22T02:17:14;8.60;;;6.10;;
17796;SDS011;55596;53.554;9.916;2023-11-22T02:19:43;11.10;;;6.20;;
17796;SDS011;55596;53.554;9.916;2023-11-22T02:22:10;13.67;;;6.53;;
17796;SDS011;55596;53.554;9.916;2023-11-22T02:24:38;9.20;;;5.90;;
17796;SDS011;55596;53.554;9.916;2023-11-22T02:27:05;10.70;;;6.70;;
17796;SDS011;55596;53.554;9.916;2023-11-22T02:29:32;11.83;;;5.93;;
17796;SDS011;55596;53.554;9.916;2023-11-22T02:31:59;13.40;;;6.23;;
17796;SDS011;55596;53.554;9.916;2023-11-22T02:34:27;12.10;;;6.03;;
17796;SDS011;55596;53.554;9.916;2023-11-22T02:36:54;10.97;;;6.03;;
17796;SDS011;55596;53.554;9.916;2023-11-22T02:39:21;9.00;;;5.30;;
17796;SDS011;55596;53.554;9.916;2023-11-22T02:41:53;7.33;;;5.47;;
17796;SDS011;55596;53.554;9.916;2023-11-22T02:44:20;8.83;;;5.63;;
17796;SDS011;55596;53.554;9.916;2023-11-22T02:46:47;9.43;;;5.43;;
17796;SDS011;55596;53.554;9.916;2023-11-22T02:49:14;8.83;;;5.73;;
17796;SDS011;55596;53.554;9.916;2023-11-22T02:51:41;8.00;;;5.63;;
17796;SDS011;55596;53.554;9.916;2023-11-22T02:54:08;9.50;;;5.87;;
17796;SDS011;55596;53.554;9.916;2023-11-22T02:56:36;8.17;;;5.73;;
17796;SDS011;55596;53.554;9.916;2023-11-22T02:59:04;8.27;;;6.10;;
17796;SDS011;55596;53.554;9.916;2023-11-22T03:01:38;9.43;;;6.57;;
17796;SDS011;55596;53.554;9.916;2023-11-22T03:04:08;10.40;;;6.17;;
17796;SDS011;55596;53.554;9.916;2023-11-22T03:06:35;9.60;;;6.87;;
17796;SDS011;55596;53.554;9.916;2023-11-22T03:09:02;10.70;;;6.27;;
17796;SDS011;55596;53.554;9.916;2023-11-22T03:11:29;10.90;;;6.20;;
17796;SDS011;55596;53.554;9.916;2023-11-22T03:13:57;10.20;;;6.53;;
17796;SDS011;55596;53.554;9.916;2023-11-22T03:16:26;8.57;;;6.37;;
17796;SDS011;55596;53.554;9.916;2023-11-22T03:18:53;9.57;;;6.37;;
17796;SDS011;55596;53.554;9.916;2023-11-22T03:21:23;10.80;;;6.93;;
17796;SDS011;55596;53.554;9.916;2023-11-22T03:23:52;15.30;;;7.43;;
17796;SDS011;55596;53.554;9.916;2023-11-22T03:26:19;9.13;;;6.33;;
17796;SDS011;55596;53.554;9.916;2023-11-22T03:28:46;13.87;;;7.23;;
17796;SDS011;55596;53.554;9.916;2023-11-22T03:31:14;9.10;;;6.80;;
17796;SDS011;55596;53.554;9.916;2023-11-22T03:33:43;10.10;;;6.83;;
17796;SDS011;55596;53.554;9.916;2023-11-22T03:36:10;9.13;;;6.80;;
17796;SDS011;55596;53.554;9.916;2023-11-22T03:38:38;9.43;;;7.03;;
17796;SDS011;55596;53.554;9.916;2023-11-22T03:41:05;10.23;;;7.57;;
17796;SDS011;55596;53.554;9.916;2023-11-22T03:43:32;10.53;;;6.83;;
17796;SDS011;55596;53.554;9.916;2023-11-22T03:45:59;13.03;;;7.23;;
17796;SDS011;55596;53.554;9.916;2023-11-22T03:48:28;15.70;;;7.60;;
17796;SDS011;55596;53.554;9.916;2023-11-22T03:50:56;12.83;;;7.07;;
17796;SDS011;55596;53.554;9.916;2023-11-22T03:53:23;12.73;;;7.10;;
17796;SDS011;55596;53.554;9.916;2023-11-22T03:55:51;9.87;;;7.10;;
17796;SDS011;55596;53.554;9.916;2023-11-22T03:58:19;9.50;;;6.73;;
17796;SDS011;55596;53.554;9.916;2023-11-22T04:00:46;10.97;;;7.40;;
17796;SDS011;55596;53.554;9.916;2023-11-22T04:03:13;9.83;;;7.53;;
17796;SDS011;55596;53.554;9.916;2023-11-22T04:05:40;10.17;;;6.47;;
17796;SDS011;55596;53.554;9.916;2023-11-22T04:08:09;13.07;;;7.27;;
17796;SDS011;55596;53.554;9.916;2023-11-22T04:10:36;11.10;;;7.53;;
17796;SDS011;55596;53.554;9.916;2023-11-22T04:13:04;10.03;;;6.70;;
17796;SDS011;55596;53.554;9.916;2023-11-22T04:15:31;10.03;;;7.17;;
17796;SDS011;55596;53.554;9.916;2023-11-22T04:17:58;20.73;;;7.27;;
17796;SDS011;55596;53.554;9.916;2023-11-22T04:20:25;10.33;;;7.03;;
17796;SDS011;55596;53.554;9.916;2023-11-22T04:22:52;13.60;;;7.27;;
17796;SDS011;55596;53.554;9.916;2023-11-22T04:25:20;11.17;;;7.07;;
17796;SDS011;55596;53.554;9.916;2023-11-22T04:27:48;13.43;;;7.70;;
17796;SDS011;55596;53.554;9.916;2023-11-22T04:30:16;11.13;;;7.37;;
17796;SDS011;55596;53.554;9.916;2023-11-22T04:32:43;10.43;;;7.20;;
17796;SDS011;55596;53.554;9.916;2023-11-22T04:35:11;12.00;;;7.57;;
17796;SDS011;55596;53.554;9.916;2023-11-22T04:37:38;10.47;;;6.43;;
17796;SDS011;55596;53.554;9.916;2023-11-22T04:40:06;13.40;;;6.93;;
17796;SDS011;55596;53.554;9.916;2023-11-22T04:42:35;10.60;;;6.80;;
17796;SDS011;55596;53.554;9.916;2023-11-22T04:45:02;10.27;;;7.17;;
17796;SDS011;55596;53.554;9.916;2023-11-22T04:47:30;15.23;;;7.70;;
17796;SDS011;55596;53.554;9.916;2023-11-22T04:49:57;13.93;;;7.93;;
17796;SDS011;55596;53.554;9.916;2023-11-22T04:52:25;11.07;;;7.97;;
17796;SDS011;55596;53.554;9.916;2023-11-22T04:54:53;13.43;;;7.03;;
17796;SDS011;55596;53.554;9.916;2023-11-22T04:57:20;12.90;;;7.07;;
17796;SDS011;55596;53.554;9.916;2023-11-22T04:59:48;12.33;;;7.30;;
17796;SDS011;55596;53.554;9.916;2023-11-22T05:02:16;12.93;;;7.43;;
17796;SDS011;55596;53.554;9.916;2023-11-22T05:04:43;12.27;;;6.97;;
17796;SDS011;55596;53.554;9.916;2023-11-22T05:07:13;10.77;;;6.97;;
17796;SDS011;55596;53.554;9.916;2023-11-22T05:09:41;13.47;;;7.60;;
17796;SDS011;55596;53.554;9.916;2023-11-22T05:12:09;13.27;;;7.70;;
17796;SDS011;55596;53.554;9.916;2023-11-22T05:14:37;10.93;;;7.43;;
17796;SDS011;55596;53.554;9.916;2023-11-22T05:17:05;11.33;;;7.80;;
17796;SDS011;55596;53.554;9.916;2023-11-22T05:19:32;11.17;;;6.83;;
17796;SDS011;55596;53.554;9.916;2023-11-22T05:22:02;12.13;;;7.07;;
17796;SDS011;55596;53.554;9.916;2023-11-22T05:24:29;14.40;;;7.40;;
17796;SDS011;55596;53.554;9.916;2023-11-22T05:26:56;12.57;;;7.47;;
17796;SDS011;55596;53.554;9.916;2023-11-22T05:29:27;15.93;;;7.43;;
17796;SDS011;55596;53.554;9.916;2023-11-22T05:31:54;15.37;;;8.27;;
17796;SDS011;55596;53.554;9.916;2023-11-22T05:34:22;12.40;;;7.53;;
17796;SDS011;55596;53.554;9.916;2023-11-22T05:36:49;16.13;;;8.03;;
17796;SDS011;55596;53.554;9.916;2023-11-22T05:39:17;12.10;;;7.60;;
17796;SDS011;55596;53.554;9.916;2023-11-22T05:41:44;15.17;;;8.27;;
17796;SDS011;55596;53.554;9.916;2023-11-22T05:44:12;12.03;;;7.50;;
17796;SDS011;55596;53.554;9.916;2023-11-22T05:46:39;11.37;;;7.50;;
17796;SDS011;55596;53.554;9.916;2023-11-22T05:49:06;12.83;;;7.73;;
17796;SDS011;55596;53.554;9.916;2023-11-22T05:51:34;11.73;;;7.70;;
17796;SDS011;55596;53.554;9.916;2023-11-22T05:54:02;13.13;;;8.00;;
17796;SDS011;55596;53.554;9.916;2023-11-22T05:56:29;14.30;;;7.60;;
17796;SDS011;55596;53.554;9.916;2023-11-22T05:58:56;13.03;;;7.90;;
17796;SDS011;55596;53.554;9.916;2023-11-22T06:01:24;13.63;;;7.90;;
17796;SDS011;55596;53.554;9.916;2023-11-22T06:03:52;13.27;;;7.43;;
17796;SDS011;55596;53.554;9.916;2023-11-22T06:06:20;14.27;;;8.30;;
17796;SDS011;55596;53.554;9.916;2023-11-22T06:08:49;15.10;;;8.00;;
17796;SDS011;55596;53.554;9.916;2023-11-22T06:11:16;13.43;;;8.00;;
17796;SDS011;55596;53.554;9.916;2023-11-22T06:13:44;14.80;;;8.10;;
17796;SDS011;55596;53.554;9.916;2023-11-22T06:16:12;14.33;;;7.90;;
17796;SDS011;55596;53.554;9.916;2023-11-22T06:18:39;12.87;;;8.20;;
17796;SDS011;55596;53.554;9.916;2023-11-22T06:21:06;17.83;;;9.20;;
17796;SDS011;55596;53.554;9.916;2023-11-22T06:23:36;18.27;;;9.97;;
17796;SDS011;55596;53.554;9.916;2023-11-22T06:26:05;16.37;;;9.57;;
17796;SDS011;55596;53.554;9.916;2023-11-22T06:28:32;18.27;;;9.33;;
17796;SDS011;55596;53.554;9.916;2023-11-22T06:30:59;15.40;;;9.10;;
17796;SDS011;55596;53.554;9.916;2023-11-22T06:33:27;15.67;;;10.07;;
17796;SDS011;55596;53.554;9.916;2023-11-22T06:35:55;21.40;;;10.90;;
17796;SDS011;55596;53.554;9.916;2023-11-22T06:38:22;15.37;;;9.90;;
17796;SDS011;55596;53.554;9.916;2023-11-22T06:40:49;16.57;;;9.73;;
17796;SDS011;55596;53.554;9.916;2023-11-22T06:43:17;19.57;;;9.87;;
17796;SDS011;55596;53.554;9.916;2023-11-22T06:45:44;18.20;;;9.87;;
17796;SDS011;55596;53.554;9.916;2023-11-22T06:48:12;18.43;;;10.23;;
17796;SDS011;55596;53.554;9.916;2023-11-22T06:50:39;19.47;;;10.27;;
17796;SDS011;55596;53.554;9.916;2023-11-22T06:53:07;20.40;;;10.97;;
17796;SDS011;55596;53.554;9.916;2023-11-22T06:55:34;17.47;;;9.90;;
17796;SDS011;55596;53.554;9.916;2023-11-22T06:58:03;15.60;;;9.33;;
17796;SDS011;55596;53.554;9.916;2023-11-22T07:00:32;22.83;;;10.33;;
17796;SDS011;55596;53.554;9.916;2023-11-22T07:02:59;18.07;;;9.63;;
17796;SDS011;55596;53.554;9.916;2023-11-22T07:05:28;15.50;;;9.40;;
17796;SDS011;55596;53.554;9.916;2023-11-22T07:07:55;21.57;;;11.43;;
17796;SDS011;55596;53.554;9.916;2023-11-22T07:10:22;24.53;;;11.70;;
17796;SDS011;55596;53.554;9.916;2023-11-22T07:12:50;19.77;;;11.00;;
17796;SDS011;55596;53.554;9.916;2023-11-22T07:15:17;22.37;;;11.17;;
17796;SDS011;55596;53.554;9.916;2023-11-22T07:17:45;19.43;;;11.03;;
17796;SDS011;55596;53.554;9.916;2023-11-22T07:20:12;18.43;;;9.70;;
17796;SDS011;55596;53.554;9.916;2023-11-22T07:22:42;18.23;;;9.80;;
17796;SDS011;55596;53.554;9.916;2023-11-22T07:25:09;16.13;;;10.20;;
17796;SDS011;55596;53.554;9.916;2023-11-22T07:27:43;18.60;;;10.70;;
17796;SDS011;55596;53.554;9.916;2023-11-22T07:30:11;18.37;;;10.20;;
17796;SDS011;55596;53.554;9.916;2023-11-22T07:32:39;14.57;;;10.20;;
17796;SDS011;55596;53.554;9.916;2023-11-22T07:35:07;17.07;;;9.80;;
17796;SDS011;55596;53.554;9.916;2023-11-22T07:37:35;15.30;;;9.07;;
17796;SDS011;55596;53.554;9.916;2023-11-22T07:40:05;15.43;;;9.73;;
17796;SDS011;55596;53.554;9.916;2023-11-22T07:42:33;13.87;;;9.00;;
17796;SDS011;55596;53.554;9.916;2023-11-22T07:45:00;17.50;;;9.87;;
17796;SDS011;55596;53.554;9.916;2023-11-22T07:47:27;16.07;;;9.67;;
17796;SDS011;55596;53.554;9.916;2023-11-22T07:49:55;22.43;;;9.97;;
17796;SDS011;55596;53.554;9.916;2023-11-22T07:52:23;15.47;;;9.33;;
17796;SDS011;55596;53.554;9.916;2023-11-22T07:54:54;15.33;;;9.80;;
17796;SDS011;55596;53.554;9.916;2023-11-22T07:57:21;18.37;;;9.93;;
17796;SDS011;55596;53.554;9.916;2023-11-22T07:59:50;14.63;;;9.07;;
17796;SDS011;55596;53.554;9.916;2023-11-22T08:02:21;14.40;;;9.43;;
17796;SDS011;55596;53.554;9.916;2023-11-22T08:04:48;18.50;;;9.53;;
17796;SDS011;55596;53.554;9.916;2023-11-22T08:07:16;15.80;;;9.53;;
17796;SDS011;55596;53.554;9.916;2023-11-22T08:09:45;17.73;;;9.63;;
17796;SDS011;55596;53.554;9.916;2023-11-22T08:12:12;18.27;;;8.97;;
17796;SDS011;55596;53.554;9.916;2023-11-22T08:14:39;12.93;;;8.83;;
17796;SDS011;55596;53.554;9.916;2023-11-22T08:17:09;15.63;;;9.30;;
17796;SDS011;55596;53.554;9.916;2023-11-22T08:19:39;17.53;;;9.67;;
17796;SDS011;55596;53.554;9.916;2023-11-22T08:22:06;20.53;;;9.53;;
17796;SDS011;55596;53.554;9.916;2023-11-22T08:24:33;16.57;;;7.43;;
17796;SDS011;55596;53.554;9.916;2023-11-22T08:27:02;15.17;;;7.80;;
17796;SDS011;55596;53.554;9.916;2023-11-22T08:29:29;12.80;;;8.27;;
17796;SDS011;55596;53.554;9.916;2023-11-22T08:31:56;16.27;;;7.70;;
17796;SDS011;55596;53.554;9.916;2023-11-22T08:34:25;11.60;;;7.97;;
17796;SDS011;55596;53.554;9.916;2023-11-22T08:36:52;15.37;;;7.77;;
17796;SDS011;55596;53.554;9.916;2023-11-22T08:39:19;12.20;;;7.37;;
17796;SDS011;55596;53.554;9.916;2023-11-22T08:41:46;10.93;;;6.97;;
17796;SDS011;55596;53.554;9.916;2023-11-22T08:44:16;12.47;;;7.53;;
17796;SDS011;55596;53.554;9.916;2023-11-22T08:46:44;13.43;;;7.67;;
17796;SDS011;55596;53.554;9.916;2023-11-22T08:49:12;11.33;;;7.33;;
17796;SDS011;55596;53.554;9.916;2023-11-22T08:51:40;14.93;;;8.10;;
17796;SDS011;55596;53.554;9.916;2023-11-22T08:54:08;15.73;;;7.53;;
17796;SDS011;55596;53.554;9.916;2023-11-22T08:56:35;9.90;;;7.50;;
17796;SDS011;55596;53.554;9.916;2023-11-22T08:59:02;10.53;;;7.93;;
17796;SDS011;55596;53.554;9.916;2023-11-22T09:01:31;13.37;;;7.37;;
17796;SDS011;55596;53.554;9.916;2023-11-22T09:03:58;15.13;;;7.10;;
17796;SDS011;55596;53.554;9.916;2023-11-22T09:06:27;13.57;;;7.57;;
17796;SDS011;55596;53.554;9.916;2023-11-22T09:08:54;14.17;;;7.40;;
17796;SDS011;55596;53.554;9.916;2023-11-22T09:11:22;11.87;;;6.20;;
17796;SDS011;55596;53.554;9.916;2023-11-22T09:13:49;12.13;;;6.30;;
17796;SDS011;55596;53.554;9.916;2023-11-22T09:16:18;8.93;;;6.03;;
17796;SDS011;55596;53.554;9.916;2023-11-22T09:18:49;8.93;;;5.90;;
17796;SDS011;55596;53.554;9.916;2023-11-22T09:21:16;8.53;;;5.37;;
17796;SDS011;55596;53.554;9.916;2023-11-22T09:23:44;9.37;;;5.30;;
17796;SDS011;55596;53.554;9.916;2023-11-22T09:26:13;13.27;;;5.30;;
17796;SDS011;55596;53.554;9.916;2023-11-22T09:28:40;9.43;;;5.53;;
17796;SDS011;55596;53.554;9.916;2023-11-22T09:31:08;7.07;;;4.87;;
17796;SDS011;55596;53.554;9.916;2023-11-22T09:33:38;7.43;;;4.40;;
17796;SDS011;55596;53.554;9.916;2023-11-22T09:36:07;6.70;;;4.90;;
17796;SDS011;55596;53.554;9.916;2023-11-22T09:38:36;7.23;;;5.27;;
17796;SDS011;55596;53.554;9.916;2023-11-22T09:41:04;7.93;;;5.47;;
17796;SDS011;55596;53.554;9.916;2023-11-22T09:43:33;8.67;;;5.37;;
17796;SDS011;55596;53.554;9.916;2023-11-22T09:46:00;7.27;;;4.90;;
17796;SDS011;55596;53.554;9.916;2023-11-22T09:48:27;8.73;;;4.40;;
17796;SDS011;55596;53.554;9.916;2023-11-22T09:50:56;8.27;;;4.87;;
17796;SDS011;55596;53.554;9.916;2023-11-22T09:53:29;9.90;;;5.43;;
17796;SDS011;55596;53.554;9.916;2023-11-22T09:55:57;10.27;;;4.30;;
17796;SDS011;55596;53.554;9.916;2023-11-22T09:58:25;8.23;;;4.60;;
17796;SDS011;55596;53.554;9.916;2023-11-22T10:00:54;7.63;;;4.53;;
17796;SDS011;55596;53.554;9.916;2023-11-22T10:03:21;9.50;;;4.77;;
17796;SDS011;55596;53.554;9.916;2023-11-22T10:05:49;8.60;;;4.37;;
17796;SDS011;55596;53.554;9.916;2023-11-22T10:08:17;7.80;;;4.70;;
17796;SDS011;55596;53.554;9.916;2023-11-22T10:10:49;12.23;;;5.10;;
17796;SDS011;55596;53.554;9.916;2023-11-22T10:13:19;8.60;;;4.40;;
17796;SDS011;55596;53.554;9.916;2023-11-22T10:15:46;10.17;;;4.80;;
17796;SDS011;55596;53.554;9.916;2023-11-22T10:18:14;8.73;;;4.27;;
17796;SDS011;55596;53.554;9.916;2023-11-22T10:20:43;6.43;;;4.20;;
17796;SDS011;55596;53.554;9.916;2023-11-22T10:23:12;10.37;;;4.50;;
17796;SDS011;55596;53.554;9.916;2023-11-22T10:25:43;6.40;;;4.10;;
17796;SDS011;55596;53.554;9.916;2023-11-22T10:28:11;5.10;;;3.93;;
17796;SDS011;55596;53.554;9.916;2023-11-22T10:30:38;9.53;;;4.20;;
17796;SDS011;55596;53.554;9.916;2023-11-22T10:33:07;8.07;;;4.47;;
17796;SDS011;55596;53.554;9.916;2023-11-22T10:35:38;6.97;;;4.40;;
17796;SDS011;55596;53.554;9.916;2023-11-22T10:38:07;5.87;;;4.00;;
17796;SDS011;55596;53.554;9.916;2023-11-22T10:40:35;9.47;;;4.60;;
17796;SDS011;55596;53.554;9.916;2023-11-22T10:43:03;8.33;;;3.70;;
17796;SDS011;55596;53.554;9.916;2023-11-22T10:45:31;5.53;;;4.20;;
17796;SDS011;55596;53.554;9.916;2023-11-22T10:48:00;14.83;;;5.00;;
17796;SDS011;55596;53.554;9.916;2023-11-22T10:50:27;9.13;;;5.60;;
17796;SDS011;55596;53.554;9.916;2023-11-22T10:52:56;8.53;;;6.07;;
17796;SDS011;55596;53.554;9.916;2023-11-22T10:55:26;7.53;;;5.40;;
17796;SDS011;55596;53.554;9.916;2023-11-22T10:57:54;7.67;;;4.10;;
17796;SDS011;55596;53.554;9.916;2023-11-22T11:00:21;6.10;;;4.17;;
17796;SDS011;55596;53.554;9.916;2023-11-22T11:02:59;7.67;;;3.50;;
17796;SDS011;55596;53.554;9.916;2023-11-22T11:05:27;8.50;;;3.20;;
17796;SDS011;55596;53.554;9.916;2023-11-22T11:07:58;4.57;;;3.10;;
17796;SDS011;55596;53.554;9.916;2023-11-22T11:10:28;4.33;;;3.10;;
17796;SDS011;55596;53.554;9.916;2023-11-22T11:12:55;6.80;;;3.10;;
17796;SDS011;55596;53.554;9.916;2023-11-22T11:15:22;7.40;;;2.50;;
17796;SDS011;55596;53.554;9.916;2023-11-22T11:17:50;7.60;;;2.90;;
17796;SDS011;55596;53.554;9.916;2023-11-22T11:20:18;3.70;;;2.50;;
17796;SDS011;55596;53.554;9.916;2023-11-22T11:22:46;4.93;;;2.20;;
17796;SDS011;55596;53.554;9.916;2023-11-22T11:25:15;3.83;;;2.10;;
17796;SDS011;55596;53.554;9.916;2023-11-22T11:27:43;4.73;;;1.70;;
17796;SDS011;55596;53.554;9.916;2023-11-22T11:32:56;6.73;;;1.90;;
17796;SDS011;55596;53.554;9.916;2023-11-22T11:35:35;4.67;;;1.80;;
17796;SDS011;55596;53.554;9.916;2023-11-22T11:38:04;5.90;;;1.70;;
17796;SDS011;55596;53.554;9.916;2023-11-22T11:40:34;4.50;;;1.63;;
17796;SDS011;55596;53.554;9.916;2023-11-22T11:43:01;2.30;;;1.40;;
17796;SDS011;55596;53.554;9.916;2023-11-22T11:45:28;4.10;;;1.60;;
17796;SDS011;55596;53.554;9.916;2023-11-22T11:47:56;3.23;;;1.30;;
17796;SDS011;55596;53.554;9.916;2023-11-22T11:50:24;1.77;;;1.20;;
17796;SDS011;55596;53.554;9.916;2023-11-22T11:52:53;1.87;;;1.07;;
17796;SDS011;55596;53.554;9.916;2023-11-22T11:55:20;1.57;;;1.13;;
17796;SDS011;55596;53.554;9.916;2023-11-22T11:57:47;1.83;;;1.00;;
17796;SDS011;55596;53.554;9.916;2023-11-22T12:00:14;2.20;;;1.10;;
17796;SDS011;55596;53.554;9.916;2023-11-22T12:02:41;1.40;;;1.00;;
17796;SDS011;55596;53.554;9.916;2023-11-22T12:05:08;1.20;;;1.03;;
17796;SDS011;55596;53.554;9.916;2023-11-22T12:07:36;2.37;;;0.90;;
17796;SDS011;55596;53.554;9.916;2023-11-22T12:10:05;2.10;;;0.80;;
17796;SDS011;55596;53.554;9.916;2023-11-22T12:12:33;2.10;;;0.90;;
17796;SDS011;55596;53.554;9.916;2023-11-22T12:15:01;1.67;;;0.80;;
17796;SDS011;55596;53.554;9.916;2023-11-22T12:17:28;1.40;;;0.90;;
17796;SDS011;55596;53.554;9.916;2023-11-22T12:20:08;0.90;;;0.70;;
17796;SDS011;55596;53.554;9.916;2023-11-22T12:22:36;3.03;;;0.93;;
17796;SDS011;55596;53.554;9.916;2023-11-22T12:25:05;1.60;;;0.87;;
17796;SDS011;55596;53.554;9.916;2023-11-22T12:27:32;3.50;;;1.00;;
17796;SDS011;55596;53.554;9.916;2023-11-22T12:30:00;1.60;;;0.93;;
17796;SDS011;55596;53.554;9.916;2023-11-22T12:32:27;4.13;;;0.90;;
17796;SDS011;55596;53.554;9.916;2023-11-22T12:34:54;2.20;;;1.10;;
17796;SDS011;55596;53.554;9.916;2023-11-22T12:37:21;2.43;;;0.80;;
17796;SDS011;55596;53.554;9.916;2023-11-22T12:39:50;2.73;;;1.20;;
17796;SDS011;55596;53.554;9.916;2023-11-22T12:42:19;1.50;;;0.90;;
17796;SDS011;55596;53.554;9.916;2023-11-22T12:44:47;1.63;;;0.90;;
17796;SDS011;55596;53.554;9.916;2023-11-22T12:47:14;1.43;;;0.80;;
17796;SDS011;55596;53.554;9.916;2023-11-22T12:49:43;1.80;;;0.90;;
17796;SDS011;55596;53.554;9.916;2023-11-22T12:52:10;2.13;;;0.80;;
17796;SDS011;55596;53.554;9.916;2023-11-22T12:54:39;1.57;;;1.00;;
17796;SDS011;55596;53.554;9.916;2023-11-22T12:57:10;0.90;;;0.63;;
17796;SDS011;55596;53.554;9.916;2023-11-22T12:59:39;2.70;;;0.80;;
17796;SDS011;55596;53.554;9.916;2023-11-22T13:02:06;1.37;;;1.00;;
17796;SDS011;55596;53.554;9.916;2023-11-22T13:04:34;2.40;;;0.77;;
17796;SDS011;55596;53.554;9.916;2023-11-22T13:07:01;0.97;;;0.63;;
17796;SDS011;55596;53.554;9.916;2023-11-22T13:09:28;1.47;;;0.90;;
17796;SDS011;55596;53.554;9.916;2023-11-22T13:11:57;1.27;;;0.70;;
17796;SDS011;55596;53.554;9.916;2023-11-22T13:14:24;1.33;;;0.87;;
17796;SDS011;55596;53.554;9.916;2023-11-22T13:16:58;1.00;;;0.80;;
17796;SDS011;55596;53.554;9.916;2023-11-22T13:19:25;1.17;;;0.80;;
17796;SDS011;55596;53.554;9.916;2023-11-22T13:21:52;0.80;;;0.60;;
17796;SDS011;55596;53.554;9.916;2023-11-22T13:24:19;0.80;;;0.53;;
17796;SDS011;55596;53.554;9.916;2023-11-22T13:26:46;0.60;;;0.60;;
17796;SDS011;55596;53.554;9.916;2023-11-22T13:29:14;1.33;;;0.70;;
17796;SDS011;55596;53.554;9.916;2023-11-22T13:31:41;1.03;;;0.80;;
17796;SDS011;55596;53.554;9.916;2023-11-22T13:34:09;1.50;;;0.83;;
17796;SDS011;55596;53.554;9.916;2023-11-22T13:36:37;2.03;;;1.00;;
17796;SDS011;55596;53.554;9.916;2023-11-22T13:39:04;1.60;;;1.10;;
17796;SDS011;55596;53.554;9.916;2023-11-22T13:41:31;1.20;;;0.93;;
17796;SDS011;55596;53.554;9.916;2023-11-22T13:43:58;2.20;;;1.10;;
17796;SDS011;55596;53.554;9.916;2023-11-22T13:46:26;1.90;;;1.13;;
17796;SDS011;55596;53.554;9.916;2023-11-22T13:48:53;1.13;;;0.97;;
17796;SDS011;55596;53.554;9.916;2023-11-22T13:51:21;1.63;;;1.50;;
17796;SDS011;55596;53.554;9.916;2023-11-22T13:53:50;1.90;;;1.30;;
17796;SDS011;55596;53.554;9.916;2023-11-22T13:56:18;2.03;;;1.50;;
17796;SDS011;55596;53.554;9.916;2023-11-22T13:58:45;3.53;;;1.60;;
17796;SDS011;55596;53.554;9.916;2023-11-22T14:01:12;1.77;;;1.50;;
17796;SDS011;55596;53.554;9.916;2023-11-22T14:03:46;2.43;;;1.37;;
17796;SDS011;55596;53.554;9.916;2023-11-22T14:06:13;4.13;;;1.40;;
17796;SDS011;55596;53.554;9.916;2023-11-22T14:08:43;1.97;;;1.47;;
17796;SDS011;55596;53.554;9.916;2023-11-22T14:11:10;2.67;;;1.33;;
17796;SDS011;55596;53.554;9.916;2023-11-22T14:13:38;1.77;;;1.27;;
17796;SDS011;55596;53.554;9.916;2023-11-22T14:16:06;1.93;;;1.30;;
17796;SDS011;55596;53.554;9.916;2023-11-22T14:18:33;2.83;;;1.20;;
17796;SDS011;55596;53.554;9.916;2023-11-22T14:21:00;2.13;;;1.60;;
17796;SDS011;55596;53.554;9.916;2023-11-22T14:23:29;1.73;;;1.30;;
17796;SDS011;55596;53.554;9.916;2023-11-22T14:25:57;1.93;;;1.27;;
17796;SDS011;55596;53.554;9.916;2023-11-22T14:28:25;2.50;;;1.40;;
17796;SDS011;55596;53.554;9.916;2023-11-22T14:30:52;2.60;;;1.47;;
17796;SDS011;55596;53.554;9.916;2023-11-22T14:33:20;3.07;;;1.50;;
17796;SDS011;55596;53.554;9.916;2023-11-22T14:35:47;1.80;;;1.50;;
17796;SDS011;55596;53.554;9.916;2023-11-22T14:38:14;2.63;;;1.60;;
17796;SDS011;55596;53.554;9.916;2023-11-22T14:40:42;2.03;;;1.57;;
17796;SDS011;55596;53.554;9.916;2023-11-22T14:43:11;2.60;;;1.60;;
17796;SDS011;55596;53.554;9.916;2023-11-22T14:45:38;2.63;;;1.50;;
17796;SDS011;55596;53.554;9.916;2023-11-22T14:48:07;2.33;;;1.47;;